CDT,Max TemperatureF,Mean TemperatureF,Min TemperatureF,Max Dew PointF,MeanDew PointF,Min DewpointF,Max Humidity, Mean Humidity, Min Humidity, Max Sea Level PressureIn, Mean Sea Level PressureIn, Min Sea Level PressureIn, Max VisibilityMiles, Mean VisibilityMiles, Min VisibilityMiles, Max Wind SpeedMPH, Mean Wind SpeedMPH, Max Gust SpeedMPH,PrecipitationIn, CloudCover, Events, WindDirDegrees
2012-10-1,66,57,47,49,45,40,99,70,40,29.93,29.88,29.82,10,10,7,10,4,,0.00,0,,64
2012-10-2,70,63,55,53,48,41,91,65,39,29.91,29.85,29.81,10,10,10,17,9,24,0.00,3,,40
2012-10-3,64,61,57,61,58,54,100,91,77,30.04,29.95,29.88,10,6,2,9,6,,0.02,8,Rain,163
2012-10-4,78,62,46,57,53,44,97,79,44,30.14,30.06,29.99,10,10,4,20,9,29,0.00,4,Rain-Thunderstorm,230
2012-10-5,47,42,36,44,33,24,94,65,44,30.18,30.12,30.08,10,10,7,14,8,22,0.00,4,Rain,282
2012-10-6,49,39,29,31,28,26,90,62,43,30.18,30.14,30.08,10,10,10,14,8,29,0.00,4,,301
2012-10-7,51,42,32,32,25,19,87,56,30,30.19,30.16,30.13,10,10,10,12,6,17,0.00,3,,290
2012-10-8,60,45,30,33,29,26,93,58,28,30.16,30.09,30.01,10,10,10,21,10,28,0.00,0,,197
2012-10-9,67,54,41,42,37,33,97,60,31,30.01,29.92,29.81,10,10,7,28,13,38,0.24,2,Rain,217
2012-10-10,52,44,35,41,32,25,100,70,39,30.18,30.08,29.93,10,10,10,22,10,32,0.00,1,,279
2012-10-11,65,49,32,42,33,30,95,58,30,30.26,30.13,30.06,10,10,10,23,11,30,0.00,2,Rain,219
2012-10-12,55,47,38,39,32,28,79,58,38,30.44,30.35,30.26,10,10,3,14,8,24,T,2,Rain,68
2012-10-13,67,57,46,64,49,27,100,80,46,30.26,29.99,29.80,10,8,3,20,12,29,0.47,7,Rain-Thunderstorm,190
2012-10-14,71,60,48,64,57,45,100,90,70,29.80,29.63,29.44,10,8,2,30,15,45,0.64,8,Rain-Thunderstorm,235
2012-10-15,59,51,42,45,40,36,93,74,44,29.96,29.91,29.81,10,10,10,14,9,21,0.00,2,,315
2012-10-16,70,56,41,52,44,37,95,69,43,29.97,29.76,29.57,10,10,7,26,12,33,T,0,,169
2012-10-17,68,60,52,59,53,48,99,77,52,29.58,29.47,29.28,10,9,2,29,16,39,0.71,6,Rain-Thunderstorm,197
2012-10-18,53,49,44,50,41,34,94,79,52,29.52,29.44,29.36,10,10,10,25,12,32,0.17,7,Rain,229
2012-10-19,51,45,38,46,43,41,100,91,76,29.66,29.52,29.44,10,9,4,10,7,,0.07,7,Rain,258
2012-10-20,56,46,36,45,40,36,100,86,57,29.95,29.81,29.66,10,9,0,13,7,17,0.00,3,Fog,255
2012-10-21,70,54,38,50,44,36,100,77,47,30.04,29.99,29.95,10,8,2,14,7,21,0.00,0,,158
2012-10-22,65,60,54,63,57,48,100,91,79,29.98,29.93,29.89,10,9,2,15,8,25,0.22,6,Rain-Thunderstorm,175
2012-10-23,71,66,61,65,62,59,100,93,82,29.94,29.91,29.88,10,8,2,15,7,22,0.25,7,Rain-Thunderstorm,173
2012-10-24,79,69,59,64,61,58,97,81,61,29.96,29.91,29.86,10,10,10,20,10,28,0.00,2,,184
2012-10-25,75,59,43,62,56,38,94,79,61,30.07,29.82,29.70,10,10,3,28,17,38,0.58,5,Rain-Thunderstorm,219
2012-10-26,50,43,36,38,30,26,85,64,42,30.32,30.26,30.07,10,10,10,18,11,24,0.00,2,,350
2012-10-27,48,40,32,30,28,25,82,65,43,30.32,30.28,30.23,10,10,10,16,8,17,0.00,0,,7
2012-10-28,49,42,35,32,30,27,80,65,46,30.27,30.25,30.23,10,10,10,22,11,30,0.00,3,,12
2012-10-29,52,44,35,34,30,25,90,65,36,30.27,30.21,30.04,10,10,10,21,12,28,0.00,0,,5
2012-10-30,47,43,38,28,25,22,67,54,43,30.03,29.85,29.78,10,10,10,24,17,32,0.00,2,,352
2012-10-31,50,41,32,31,27,21,75,62,49,29.86,29.83,29.79,10,10,10,16,12,23,0.00,3,,327